sensor_id;sensor_type;location;lat;lon;timestamp;noise_LAeq;noise_LA_min;noise_LA_max;noise_LA01;noise_LA95
60503;Laerm;51448;51.660;5.824;2023-11-19T00:00:20;38.25;32.84;53.97;;
60503;Laerm;51448;51.660;5.824;2023-11-19T00:02:47;40.04;33.36;58.35;;
60503;Laerm;51448;51.660;5.824;2023-11-19T00:05:15;37.30;31.88;58.56;;
60503;Laerm;51448;51.660;5.824;2023-11-19T00:14:35;36.76;30.92;61.30;;
60503;Laerm;51448;51.660;5.824;2023-11-19T00:17:03;36.63;31.60;54.67;;
60503;Laerm;51448;51.660;5.824;2023-11-19T00:19:31;38.51;30.78;55.98;;
60503;Laerm;51448;51.660;5.824;2023-11-19T00:21:59;36.39;32.54;49.65;;
60503;Laerm;51448;51.660;5.824;2023-11-19T00:24:30;36.12;32.56;51.39;;
60503;Laerm;51448;51.660;5.824;2023-11-19T00:26:58;37.52;33.26;56.95;;
60503;Laerm;51448;51.660;5.824;2023-11-19T00:29:25;36.78;32.42;51.76;;
60503;Laerm;51448;51.660;5.824;2023-11-19T00:31:53;36.34;31.83;58.22;;
60503;Laerm;51448;51.660;5.824;2023-11-19T00:34:21;36.73;32.50;49.13;;
60503;Laerm;51448;51.660;5.824;2023-11-19T00:36:50;36.30;31.19;56.25;;
60503;Laerm;51448;51.660;5.824;2023-11-19T00:39:17;37.85;32.43;56.12;;
60503;Laerm;51448;51.660;5.824;2023-11-19T00:41:45;40.72;32.39;57.52;;
60503;Laerm;51448;51.660;5.824;2023-11-19T00:44:13;36.73;31.73;57.59;;
60503;Laerm;51448;51.660;5.824;2023-11-19T00:46:41;34.79;31.75;55.09;;
60503;Laerm;51448;51.660;5.824;2023-11-19T00:49:09;41.71;32.45;54.96;;
60503;Laerm;51448;51.660;5.824;2023-11-19T00:51:39;46.43;32.02;65.36;;
60503;Laerm;51448;51.660;5.824;2023-11-19T00:54:06;38.89;32.20;59.89;;
60503;Laerm;51448;51.660;5.824;2023-11-19T00:56:34;35.02;31.37;48.96;;
60503;Laerm;51448;51.660;5.824;2023-11-19T00:59:03;36.55;32.22;51.68;;
60503;Laerm;51448;51.660;5.824;2023-11-19T01:01:31;35.38;31.72;52.69;;
60503;Laerm;51448;51.660;5.824;2023-11-19T01:03:59;36.49;32.54;50.85;;
60503;Laerm;51448;51.660;5.824;2023-11-19T01:06:31;42.04;32.89;64.71;;
60503;Laerm;51448;51.660;5.824;2023-11-19T01:08:58;37.97;32.35;53.29;;
60503;Laerm;51448;51.660;5.824;2023-11-19T01:11:26;35.89;32.28;53.72;;
60503;Laerm;51448;51.660;5.824;2023-11-19T01:13:54;33.61;31.49;50.86;;
60503;Laerm;51448;51.660;5.824;2023-11-19T01:16:22;43.39;31.64;71.49;;
60503;Laerm;51448;51.660;5.824;2023-11-19T01:18:50;42.36;35.38;62.14;;
60503;Laerm;51448;51.660;5.824;2023-11-19T01:21:22;38.26;33.54;54.26;;
60503;Laerm;51448;51.660;5.824;2023-11-19T01:23:50;34.12;31.80;44.93;;
60503;Laerm;51448;51.660;5.824;2023-11-19T01:26:17;43.44;33.47;62.64;;
60503;Laerm;51448;51.660;5.824;2023-11-19T01:28:45;38.83;31.50;54.98;;
60503;Laerm;51448;51.660;5.824;2023-11-19T01:31:17;39.40;31.22;60.25;;
60503;Laerm;51448;51.660;5.824;2023-11-19T01:33:45;37.00;31.82;56.68;;
60503;Laerm;51448;51.660;5.824;2023-11-19T01:36:14;35.82;31.73;56.41;;
60503;Laerm;51448;51.660;5.824;2023-11-19T01:38:42;35.46;31.02;52.63;;
60503;Laerm;51448;51.660;5.824;2023-11-19T01:41:09;33.68;30.94;41.57;;
60503;Laerm;51448;51.660;5.824;2023-11-19T01:43:39;34.19;31.11;45.81;;
60503;Laerm;51448;51.660;5.824;2023-11-19T01:46:10;34.70;31.48;46.16;;
60503;Laerm;51448;51.660;5.824;2023-11-19T01:48:44;34.78;30.96;50.01;;
60503;Laerm;51448;51.660;5.824;2023-11-19T01:51:13;35.31;31.26;49.31;;
60503;Laerm;51448;51.660;5.824;2023-11-19T01:53:44;33.60;30.98;47.17;;
60503;Laerm;51448;51.660;5.824;2023-11-19T01:56:15;35.38;31.58;51.89;;
60503;Laerm;51448;51.660;5.824;2023-11-19T01:58:44;36.34;30.74;54.37;;
60503;Laerm;51448;51.660;5.824;2023-11-19T02:01:13;41.00;32.17;63.89;;
60503;Laerm;51448;51.660;5.824;2023-11-19T02:03:41;37.61;31.18;53.56;;
60503;Laerm;51448;51.660;5.824;2023-11-19T02:06:10;37.03;30.86;51.77;;
60503;Laerm;51448;51.660;5.824;2023-11-19T02:08:39;36.17;32.13;53.67;;
60503;Laerm;51448;51.660;5.824;2023-11-19T02:11:07;40.43;32.20;60.45;;
60503;Laerm;51448;51.660;5.824;2023-11-19T02:13:37;40.45;32.66;66.96;;
60503;Laerm;51448;51.660;5.824;2023-11-19T02:16:06;38.69;33.07;60.80;;
60503;Laerm;51448;51.660;5.824;2023-11-19T02:18:37;37.90;32.15;55.85;;
60503;Laerm;51448;51.660;5.824;2023-11-19T02:21:05;38.97;31.38;56.20;;
60503;Laerm;51448;51.660;5.824;2023-11-19T02:23:33;37.96;32.85;54.56;;
60503;Laerm;51448;51.660;5.824;2023-11-19T02:26:46;33.66;31.32;44.28;;
60503;Laerm;51448;51.660;5.824;2023-11-19T02:29:15;37.19;32.26;56.95;;
60503;Laerm;51448;51.660;5.824;2023-11-19T02:31:42;34.01;30.70;56.09;;
60503;Laerm;51448;51.660;5.824;2023-11-19T02:34:13;37.35;31.33;62.11;;
60503;Laerm;51448;51.660;5.824;2023-11-19T02:36:41;35.69;30.88;53.72;;
60503;Laerm;51448;51.660;5.824;2023-11-19T02:39:09;34.11;30.81;46.35;;
60503;Laerm;51448;51.660;5.824;2023-11-19T02:41:39;36.16;31.30;53.01;;
60503;Laerm;51448;51.660;5.824;2023-11-19T02:44:07;35.77;31.63;53.20;;
60503;Laerm;51448;51.660;5.824;2023-11-19T02:46:35;33.66;30.90;47.78;;
60503;Laerm;51448;51.660;5.824;2023-11-19T02:49:03;37.29;32.12;51.67;;
60503;Laerm;51448;51.660;5.824;2023-11-19T02:51:30;37.60;32.85;54.83;;
60503;Laerm;51448;51.660;5.824;2023-11-19T02:53:59;43.42;33.56;70.20;;
60503;Laerm;51448;51.660;5.824;2023-11-19T02:56:27;41.98;35.14;59.28;;
60503;Laerm;51448;51.660;5.824;2023-11-19T02:58:56;43.95;35.63;66.69;;
60503;Laerm;51448;51.660;5.824;2023-11-19T03:01:25;38.86;34.70;52.84;;
60503;Laerm;51448;51.660;5.824;2023-11-19T03:04:00;41.12;35.06;59.71;;
60503;Laerm;51448;51.660;5.824;2023-11-19T03:06:30;45.15;35.09;68.22;;
60503;Laerm;51448;51.660;5.824;2023-11-19T03:08:58;43.68;33.63;71.42;;
60503;Laerm;51448;51.660;5.824;2023-11-19T03:11:25;46.50;33.69;64.62;;
60503;Laerm;51448;51.660;5.824;2023-11-19T03:13:53;39.16;33.44;59.77;;
60503;Laerm;51448;51.660;5.824;2023-11-19T03:16:22;42.47;32.52;58.22;;
60503;Laerm;51448;51.660;5.824;2023-11-19T03:18:52;49.84;32.38;74.61;;
60503;Laerm;51448;51.660;5.824;2023-11-19T03:21:28;42.34;32.75;67.70;;
60503;Laerm;51448;51.660;5.824;2023-11-19T03:23:58;53.25;32.56;78.29;;
60503;Laerm;51448;51.660;5.824;2023-11-19T03:26:29;39.85;31.57;57.07;;
60503;Laerm;51448;51.660;5.824;2023-11-19T03:28:57;36.16;31.86;49.95;;
60503;Laerm;51448;51.660;5.824;2023-11-19T03:31:31;38.16;31.17;59.48;;
60503;Laerm;51448;51.660;5.824;2023-11-19T03:33:59;36.36;32.53;52.59;;
60503;Laerm;51448;51.660;5.824;2023-11-19T03:36:34;40.23;32.53;56.55;;
60503;Laerm;51448;51.660;5.824;2023-11-19T03:39:02;37.25;31.96;53.40;;
60503;Laerm;51448;51.660;5.824;2023-11-19T03:41:31;33.88;31.35;42.36;;
60503;Laerm;51448;51.660;5.824;2023-11-19T03:44:02;38.28;31.18;65.24;;
60503;Laerm;51448;51.660;5.824;2023-11-19T03:46:31;41.96;30.95;58.67;;
60503;Laerm;51448;51.660;5.824;2023-11-19T03:48:58;33.48;30.97;42.30;;
60503;Laerm;51448;51.660;5.824;2023-11-19T03:51:26;33.39;30.14;49.48;;
60503;Laerm;51448;51.660;5.824;2023-11-19T03:53:54;34.11;30.46;50.94;;
60503;Laerm;51448;51.660;5.824;2023-11-19T03:56:24;37.06;30.02;53.71;;
60503;Laerm;51448;51.660;5.824;2023-11-19T03:58:51;35.83;31.06;53.10;;
60503;Laerm;51448;51.660;5.824;2023-11-19T04:01:20;37.33;32.87;49.97;;
60503;Laerm;51448;51.660;5.824;2023-11-19T04:03:48;39.60;33.35;54.28;;
60503;Laerm;51448;51.660;5.824;2023-11-19T04:06:17;51.59;33.56;79.08;;
60503;Laerm;51448;51.660;5.824;2023-11-19T04:08:46;34.75;31.54;47.09;;
60503;Laerm;51448;51.660;5.824;2023-11-19T04:11:14;35.62;31.30;47.34;;
60503;Laerm;51448;51.660;5.824;2023-11-19T04:13:42;35.10;30.87;45.10;;
60503;Laerm;51448;51.660;5.824;2023-11-19T04:16:10;39.39;31.36;59.73;;
60503;Laerm;51448;51.660;5.824;2023-11-19T04:18:37;33.90;31.20;38.62;;
60503;Laerm;51448;51.660;5.824;2023-11-19T04:21:07;35.32;31.09;46.79;;
60503;Laerm;51448;51.660;5.824;2023-11-19T04:23:35;33.93;31.40;45.45;;
60503;Laerm;51448;51.660;5.824;2023-11-19T04:26:03;35.22;30.93;53.46;;
60503;Laerm;51448;51.660;5.824;2023-11-19T04:28:34;35.22;30.51;57.32;;
60503;Laerm;51448;51.660;5.824;2023-11-19T04:31:02;33.78;30.84;47.20;;
60503;Laerm;51448;51.660;5.824;2023-11-19T04:33:31;38.94;31.35;53.03;;
60503;Laerm;51448;51.660;5.824;2023-11-19T04:35:58;34.76;31.14;44.76;;
60503;Laerm;51448;51.660;5.824;2023-11-19T04:38:26;36.09;31.19;46.62;;
60503;Laerm;51448;51.660;5.824;2023-11-19T04:40:54;37.33;30.90;58.96;;
60503;Laerm;51448;51.660;5.824;2023-11-19T04:43:25;33.97;31.42;41.52;;
60503;Laerm;51448;51.660;5.824;2023-11-19T04:45:52;38.75;31.26;61.07;;
60503;Laerm;51448;51.660;5.824;2023-11-19T04:48:20;36.51;31.52;60.82;;
60503;Laerm;51448;51.660;5.824;2023-11-19T04:50:47;39.74;31.71;55.62;;
60503;Laerm;51448;51.660;5.824;2023-11-19T04:53:15;40.75;32.61;63.98;;
60503;Laerm;51448;51.660;5.824;2023-11-19T04:55:43;40.68;33.11;62.60;;
60503;Laerm;51448;51.660;5.824;2023-11-19T04:58:11;41.49;33.32;60.82;;
60503;Laerm;51448;51.660;5.824;2023-11-19T05:00:38;40.98;33.80;64.21;;
60503;Laerm;51448;51.660;5.824;2023-11-19T05:03:06;45.43;34.78;70.39;;
60503;Laerm;51448;51.660;5.824;2023-11-19T05:05:34;38.36;33.20;54.14;;
60503;Laerm;51448;51.660;5.824;2023-11-19T05:08:01;36.44;32.75;47.07;;
60503;Laerm;51448;51.660;5.824;2023-11-19T05:10:29;36.46;33.07;47.79;;
60503;Laerm;51448;51.660;5.824;2023-11-19T05:12:57;39.32;32.79;60.65;;
60503;Laerm;51448;51.660;5.824;2023-11-19T05:15:25;38.20;31.60;57.87;;
60503;Laerm;51448;51.660;5.824;2023-11-19T05:17:52;36.26;32.59;53.86;;
60503;Laerm;51448;51.660;5.824;2023-11-19T05:20:20;34.30;31.42;50.58;;
60503;Laerm;51448;51.660;5.824;2023-11-19T05:22:50;36.57;31.13;58.26;;
60503;Laerm;51448;51.660;5.824;2023-11-19T05:25:19;37.01;32.01;58.48;;
60503;Laerm;51448;51.660;5.824;2023-11-19T05:27:47;38.00;32.54;56.68;;
60503;Laerm;51448;51.660;5.824;2023-11-19T05:30:16;38.87;33.35;48.57;;
60503;Laerm;51448;51.660;5.824;2023-11-19T05:32:44;42.81;32.80;69.00;;
60503;Laerm;51448;51.660;5.824;2023-11-19T05:35:12;36.40;32.76;49.48;;
60503;Laerm;51448;51.660;5.824;2023-11-19T05:37:39;36.82;32.72;59.57;;
60503;Laerm;51448;51.660;5.824;2023-11-19T05:40:08;45.89;33.12;74.93;;
60503;Laerm;51448;51.660;5.824;2023-11-19T05:42:43;34.61;31.44;47.78;;
60503;Laerm;51448;51.660;5.824;2023-11-19T05:45:12;36.29;30.90;61.70;;
60503;Laerm;51448;51.660;5.824;2023-11-19T05:47:41;42.68;33.82;54.09;;
60503;Laerm;51448;51.660;5.824;2023-11-19T05:50:09;38.68;32.47;59.83;;
60503;Laerm;51448;51.660;5.824;2023-11-19T05:52:37;37.87;33.54;46.11;;
60503;Laerm;51448;51.660;5.824;2023-11-19T05:55:05;35.71;31.40;49.71;;
60503;Laerm;51448;51.660;5.824;2023-11-19T05:57:37;38.14;33.06;49.54;;
60503;Laerm;51448;51.660;5.824;2023-11-19T06:00:08;40.61;32.31;57.98;;
60503;Laerm;51448;51.660;5.824;2023-11-19T06:02:38;39.13;33.58;60.01;;
60503;Laerm;51448;51.660;5.824;2023-11-19T06:05:06;39.06;33.19;51.84;;
60503;Laerm;51448;51.660;5.824;2023-11-19T06:07:34;36.96;33.05;46.08;;
60503;Laerm;51448;51.660;5.824;2023-11-19T06:10:03;42.14;32.85;64.95;;
60503;Laerm;51448;51.660;5.824;2023-11-19T06:12:36;39.71;33.25;52.78;;
60503;Laerm;51448;51.660;5.824;2023-11-19T06:15:05;37.79;31.94;57.43;;
60503;Laerm;51448;51.660;5.824;2023-11-19T06:17:36;44.47;32.88;68.74;;
60503;Laerm;51448;51.660;5.824;2023-11-19T06:20:05;38.02;33.60;54.73;;
60503;Laerm;51448;51.660;5.824;2023-11-19T06:22:33;52.65;32.80;75.69;;
60503;Laerm;51448;51.660;5.824;2023-11-19T06:25:01;64.72;33.33;81.46;;
60503;Laerm;51448;51.660;5.824;2023-11-19T06:27:30;55.28;32.34;76.23;;
60503;Laerm;51448;51.660;5.824;2023-11-19T06:29:58;56.40;32.34;83.48;;
60503;Laerm;51448;51.660;5.824;2023-11-19T06:32:26;47.87;32.08;68.54;;
60503;Laerm;51448;51.660;5.824;2023-11-19T06:34:53;40.21;31.84;56.77;;
60503;Laerm;51448;51.660;5.824;2023-11-19T06:37:22;41.37;32.38;62.12;;
60503;Laerm;51448;51.660;5.824;2023-11-19T06:39:50;35.10;31.17;49.99;;
60503;Laerm;51448;51.660;5.824;2023-11-19T06:42:18;42.12;33.01;54.90;;
60503;Laerm;51448;51.660;5.824;2023-11-19T06:44:45;38.29;32.54;55.38;;
60503;Laerm;51448;51.660;5.824;2023-11-19T06:47:13;39.20;32.36;55.37;;
60503;Laerm;51448;51.660;5.824;2023-11-19T06:49:44;50.27;31.77;74.52;;
60503;Laerm;51448;51.660;5.824;2023-11-19T06:52:12;51.81;32.36;76.20;;
60503;Laerm;51448;51.660;5.824;2023-11-19T06:54:39;42.06;33.03;64.35;;
60503;Laerm;51448;51.660;5.824;2023-11-19T06:57:07;38.50;32.42;59.53;;
60503;Laerm;51448;51.660;5.824;2023-11-19T06:59:37;40.24;32.21;57.33;;
60503;Laerm;51448;51.660;5.824;2023-11-19T07:02:06;53.80;34.09;75.76;;
60503;Laerm;51448;51.660;5.824;2023-11-19T07:04:33;51.09;31.80;76.61;;
60503;Laerm;51448;51.660;5.824;2023-11-19T07:07:01;41.38;31.56;64.15;;
60503;Laerm;51448;51.660;5.824;2023-11-19T07:09:29;37.76;32.44;56.67;;
60503;Laerm;51448;51.660;5.824;2023-11-19T07:11:56;46.94;32.53;70.99;;
60503;Laerm;51448;51.660;5.824;2023-11-19T07:14:31;41.37;32.96;59.50;;
60503;Laerm;51448;51.660;5.824;2023-11-19T07:16:59;38.95;31.80;52.63;;
60503;Laerm;51448;51.660;5.824;2023-11-19T07:19:27;54.65;31.54;74.43;;
60503;Laerm;51448;51.660;5.824;2023-11-19T07:21:55;40.26;34.31;60.81;;
60503;Laerm;51448;51.660;5.824;2023-11-19T07:24:23;50.21;32.10;79.47;;
60503;Laerm;51448;51.660;5.824;2023-11-19T07:26:52;42.76;32.67;66.83;;
60503;Laerm;51448;51.660;5.824;2023-11-19T07:29:20;39.32;33.66;50.16;;
60503;Laerm;51448;51.660;5.824;2023-11-19T07:31:52;45.14;34.50;59.68;;
60503;Laerm;51448;51.660;5.824;2023-11-19T07:34:19;41.94;32.72;64.66;;
60503;Laerm;51448;51.660;5.824;2023-11-19T07:36:48;42.07;33.80;53.92;;
60503;Laerm;51448;51.660;5.824;2023-11-19T07:39:16;40.59;32.73;57.47;;
60503;Laerm;51448;51.660;5.824;2023-11-19T07:41:44;42.11;34.55;53.90;;
60503;Laerm;51448;51.660;5.824;2023-11-19T07:44:12;36.69;32.58;49.43;;
60503;Laerm;51448;51.660;5.824;2023-11-19T07:46:40;40.93;34.14;63.31;;
60503;Laerm;51448;51.660;5.824;2023-11-19T07:49:10;44.56;35.84;57.03;;
60503;Laerm;51448;51.660;5.824;2023-11-19T07:51:37;47.14;34.83;59.02;;
60503;Laerm;51448;51.660;5.824;2023-11-19T07:54:05;49.09;37.20;64.95;;
60503;Laerm;51448;51.660;5.824;2023-11-19T07:56:34;47.34;36.42;60.10;;
60503;Laerm;51448;51.660;5.824;2023-11-19T07:59:04;42.66;34.69;60.72;;
60503;Laerm;51448;51.660;5.824;2023-11-19T08:01:32;44.57;33.93;62.62;;
60503;Laerm;51448;51.660;5.824;2023-11-19T08:04:00;41.42;34.87;61.47;;
60503;Laerm;51448;51.660;5.824;2023-11-19T08:06:30;43.92;34.49;57.67;;
60503;Laerm;51448;51.660;5.824;2023-11-19T08:08:57;41.91;34.49;63.04;;
60503;Laerm;51448;51.660;5.824;2023-11-19T08:11:25;42.56;33.06;62.87;;
60503;Laerm;51448;51.660;5.824;2023-11-19T08:13:53;43.64;33.56;65.68;;
60503;Laerm;51448;51.660;5.824;2023-11-19T08:16:21;39.48;33.95;57.17;;
60503;Laerm;51448;51.660;5.824;2023-11-19T08:18:49;43.41;34.20;66.20;;
60503;Laerm;51448;51.660;5.824;2023-11-19T08:21:16;45.08;34.98;65.55;;
60503;Laerm;51448;51.660;5.824;2023-11-19T08:23:44;43.27;36.04;62.26;;
60503;Laerm;51448;51.660;5.824;2023-11-19T08:26:12;44.16;34.56;58.46;;
60503;Laerm;51448;51.660;5.824;2023-11-19T08:28:39;43.30;34.97;58.23;;
60503;Laerm;51448;51.660;5.824;2023-11-19T08:31:08;42.65;33.82;60.72;;
60503;Laerm;51448;51.660;5.824;2023-11-19T08:33:35;47.40;33.89;72.99;;
60503;Laerm;51448;51.660;5.824;2023-11-19T08:36:04;47.27;36.90;66.08;;
60503;Laerm;51448;51.660;5.824;2023-11-19T08:38:32;43.17;35.00;62.45;;
60503;Laerm;51448;51.660;5.824;2023-11-19T08:40:59;43.01;34.95;67.99;;
60503;Laerm;51448;51.660;5.824;2023-11-19T08:43:29;43.39;35.16;61.71;;
60503;Laerm;51448;51.660;5.824;2023-11-19T08:45:58;41.21;34.17;55.89;;
60503;Laerm;51448;51.660;5.824;2023-11-19T08:48:26;41.65;34.86;67.06;;
60503;Laerm;51448;51.660;5.824;2023-11-19T08:50:53;41.70;35.70;54.83;;
60503;Laerm;51448;51.660;5.824;2023-11-19T08:53:21;42.48;35.24;57.83;;
60503;Laerm;51448;51.660;5.824;2023-11-19T08:55:49;42.87;36.53;58.74;;
60503;Laerm;51448;51.660;5.824;2023-11-19T08:58:17;45.10;38.66;62.60;;
60503;Laerm;51448;51.660;5.824;2023-11-19T09:00:45;45.06;37.42;64.35;;
60503;Laerm;51448;51.660;5.824;2023-11-19T09:03:13;47.26;38.29;68.94;;
60503;Laerm;51448;51.660;5.824;2023-11-19T09:05:41;46.00;37.86;63.00;;
60503;Laerm;51448;51.660;5.824;2023-11-19T09:08:08;43.87;35.37;59.39;;
60503;Laerm;51448;51.660;5.824;2023-11-19T09:10:36;40.77;34.83;57.17;;
60503;Laerm;51448;51.660;5.824;2023-11-19T09:13:04;43.16;34.96;57.66;;
60503;Laerm;51448;51.660;5.824;2023-11-19T09:15:31;43.12;35.53;57.73;;
60503;Laerm;51448;51.660;5.824;2023-11-19T09:17:59;44.43;35.25;57.20;;
60503;Laerm;51448;51.660;5.824;2023-11-19T09:20:27;44.07;35.05;58.43;;
60503;Laerm;51448;51.660;5.824;2023-11-19T09:22:54;43.77;35.70;56.94;;
60503;Laerm;51448;51.660;5.824;2023-11-19T09:25:22;43.85;36.52;56.30;;
60503;Laerm;51448;51.660;5.824;2023-11-19T09:27:49;44.83;35.90;55.68;;
60503;Laerm;51448;51.660;5.824;2023-11-19T09:30:17;44.91;34.97;66.56;;
60503;Laerm;51448;51.660;5.824;2023-11-19T09:32:44;44.11;34.87;65.11;;
60503;Laerm;51448;51.660;5.824;2023-11-19T09:35:12;43.67;35.43;67.34;;
60503;Laerm;51448;51.660;5.824;2023-11-19T09:37:43;47.36;35.45;69.60;;
60503;Laerm;51448;51.660;5.824;2023-11-19T09:40:12;45.48;35.49;69.26;;
60503;Laerm;51448;51.660;5.824;2023-11-19T09:42:45;46.23;36.00;62.48;;
60503;Laerm;51448;51.660;5.824;2023-11-19T09:45:15;46.73;38.60;68.35;;
60503;Laerm;51448;51.660;5.824;2023-11-19T09:47:45;44.84;37.89;60.68;;
60503;Laerm;51448;51.660;5.824;2023-11-19T09:50:19;44.25;36.93;55.20;;
60503;Laerm;51448;51.660;5.824;2023-11-19T09:52:47;43.39;37.76;57.08;;
60503;Laerm;51448;51.660;5.824;2023-11-19T09:55:15;45.16;35.78;58.38;;
60503;Laerm;51448;51.660;5.824;2023-11-19T09:57:43;42.62;36.51;51.99;;
60503;Laerm;51448;51.660;5.824;2023-11-19T10:00:13;44.73;36.00;60.56;;
60503;Laerm;51448;51.660;5.824;2023-11-19T10:02:43;41.25;34.86;58.85;;
60503;Laerm;51448;51.660;5.824;2023-11-19T10:05:15;42.79;34.31;58.81;;
60503;Laerm;51448;51.660;5.824;2023-11-19T10:07:43;44.21;35.72;57.24;;
60503;Laerm;51448;51.660;5.824;2023-11-19T10:10:12;45.23;37.09;65.92;;
60503;Laerm;51448;51.660;5.824;2023-11-19T10:12:46;44.97;38.53;66.52;;
60503;Laerm;51448;51.660;5.824;2023-11-19T10:15:24;45.24;38.15;60.94;;
60503;Laerm;51448;51.660;5.824;2023-11-19T10:17:57;45.35;37.30;65.15;;
60503;Laerm;51448;51.660;5.824;2023-11-19T10:20:27;45.14;36.79;66.64;;
60503;Laerm;51448;51.660;5.824;2023-11-19T10:22:55;49.66;40.48;65.63;;
60503;Laerm;51448;51.660;5.824;2023-11-19T10:25:28;47.77;37.44;67.65;;
60503;Laerm;51448;51.660;5.824;2023-11-19T10:27:57;44.35;37.04;55.92;;
60503;Laerm;51448;51.660;5.824;2023-11-19T10:30:28;48.06;39.53;70.50;;
60503;Laerm;51448;51.660;5.824;2023-11-19T10:33:13;47.53;38.39;63.86;;
60503;Laerm;51448;51.660;5.824;2023-11-19T10:35:54;47.19;36.00;68.55;;
60503;Laerm;51448;51.660;5.824;2023-11-19T10:38:27;41.16;35.15;59.24;;
60503;Laerm;51448;51.660;5.824;2023-11-19T10:40:55;46.25;36.07;65.33;;
60503;Laerm;51448;51.660;5.824;2023-11-19T10:43:23;46.08;36.90;63.48;;
60503;Laerm;51448;51.660;5.824;2023-11-19T10:45:51;45.11;38.42;64.10;;
60503;Laerm;51448;51.660;5.824;2023-11-19T10:48:20;47.33;38.54;64.38;;
60503;Laerm;51448;51.660;5.824;2023-11-19T10:50:54;44.90;36.87;57.95;;
60503;Laerm;51448;51.660;5.824;2023-11-19T10:53:25;43.88;36.86;55.45;;
60503;Laerm;51448;51.660;5.824;2023-11-19T10:55:57;45.78;36.69;61.18;;
60503;Laerm;51448;51.660;5.824;2023-11-19T10:58:28;43.53;37.14;58.44;;
60503;Laerm;51448;51.660;5.824;2023-11-19T11:01:02;43.67;36.26;57.92;;
60503;Laerm;51448;51.660;5.824;2023-11-19T11:03:40;46.70;37.26;64.35;;
60503;Laerm;51448;51.660;5.824;2023-11-19T11:06:11;65.04;37.66;95.75;;
60503;Laerm;51448;51.660;5.824;2023-11-19T11:08:40;50.75;39.11;60.44;;
60503;Laerm;51448;51.660;5.824;2023-11-19T11:11:13;48.55;41.19;60.60;;
60503;Laerm;51448;51.660;5.824;2023-11-19T11:13:46;46.88;37.76;58.43;;
60503;Laerm;51448;51.660;5.824;2023-11-19T11:16:18;46.71;36.84;59.22;;
60503;Laerm;51448;51.660;5.824;2023-11-19T11:18:48;49.20;36.66;71.91;;
60503;Laerm;51448;51.660;5.824;2023-11-19T11:21:23;49.84;38.49;76.65;;
60503;Laerm;51448;51.660;5.824;2023-11-19T11:24:17;48.10;38.37;68.75;;
60503;Laerm;51448;51.660;5.824;2023-11-19T11:27:18;48.08;38.19;69.28;;
60503;Laerm;51448;51.660;5.824;2023-11-19T11:36:26;44.74;38.12;56.48;;
60503;Laerm;51448;51.660;5.824;2023-11-19T11:38:58;47.00;37.90;66.80;;
60503;Laerm;51448;51.660;5.824;2023-11-19T11:41:35;45.24;36.99;66.10;;
60503;Laerm;51448;51.660;5.824;2023-11-19T11:44:03;47.40;36.98;67.41;;
60503;Laerm;51448;51.660;5.824;2023-11-19T11:49:10;48.93;38.82;71.47;;
60503;Laerm;51448;51.660;5.824;2023-11-19T11:57:09;51.02;40.26;72.97;;
60503;Laerm;51448;51.660;5.824;2023-11-19T11:59:50;51.23;38.40;74.62;;
60503;Laerm;51448;51.660;5.824;2023-11-19T12:02:21;44.01;38.71;53.56;;
60503;Laerm;51448;51.660;5.824;2023-11-19T12:04:52;42.60;37.63;58.31;;
60503;Laerm;51448;51.660;5.824;2023-11-19T12:07:23;46.99;38.74;60.34;;
60503;Laerm;51448;51.660;5.824;2023-11-19T12:10:07;52.52;37.82;74.48;;
60503;Laerm;51448;51.660;5.824;2023-11-19T12:12:35;45.79;37.55;61.86;;
60503;Laerm;51448;51.660;5.824;2023-11-19T12:15:09;45.40;38.83;59.29;;
60503;Laerm;51448;51.660;5.824;2023-11-19T12:17:48;48.69;38.36;71.03;;
60503;Laerm;51448;51.660;5.824;2023-11-19T12:20:19;46.16;37.39;58.88;;
60503;Laerm;51448;51.660;5.824;2023-11-19T12:22:52;45.04;36.24;62.14;;
60503;Laerm;51448;51.660;5.824;2023-11-19T12:25:20;44.96;35.64;60.90;;
60503;Laerm;51448;51.660;5.824;2023-11-19T12:27:51;45.71;37.41;56.86;;
60503;Laerm;51448;51.660;5.824;2023-11-19T12:30:25;47.55;37.17;66.51;;
60503;Laerm;51448;51.660;5.824;2023-11-19T12:32:54;44.93;36.82;61.60;;
60503;Laerm;51448;51.660;5.824;2023-11-19T12:35:23;46.01;38.58;56.44;;
60503;Laerm;51448;51.660;5.824;2023-11-19T12:37:52;45.40;38.10;62.30;;
60503;Laerm;51448;51.660;5.824;2023-11-19T12:40:25;47.61;37.91;68.31;;
60503;Laerm;51448;51.660;5.824;2023-11-19T12:42:54;46.97;37.66;64.65;;
60503;Laerm;51448;51.660;5.824;2023-11-19T12:45:23;44.04;37.35;65.17;;
60503;Laerm;51448;51.660;5.824;2023-11-19T12:48:08;43.05;36.15;56.39;;
60503;Laerm;51448;51.660;5.824;2023-11-19T12:50:55;46.86;36.68;66.81;;
60503;Laerm;51448;51.660;5.824;2023-11-19T12:53:27;45.08;38.07;62.73;;
60503;Laerm;51448;51.660;5.824;2023-11-19T12:55:54;47.72;39.02;66.94;;
60503;Laerm;51448;51.660;5.824;2023-11-19T12:58:36;44.40;36.64;56.04;;
60503;Laerm;51448;51.660;5.824;2023-11-19T13:01:06;45.84;37.73;60.35;;
60503;Laerm;51448;51.660;5.824;2023-11-19T13:03:38;45.91;37.79;60.45;;
60503;Laerm;51448;51.660;5.824;2023-11-19T13:06:09;43.45;36.71;62.12;;
60503;Laerm;51448;51.660;5.824;2023-11-19T13:08:49;45.35;36.84;63.91;;
60503;Laerm;51448;51.660;5.824;2023-11-19T13:11:35;45.94;35.75;64.88;;
60503;Laerm;51448;51.660;5.824;2023-11-19T13:14:05;47.89;38.58;70.10;;
60503;Laerm;51448;51.660;5.824;2023-11-19T13:16:33;43.45;37.04;51.95;;
60503;Laerm;51448;51.660;5.824;2023-11-19T13:19:01;42.30;34.93;53.29;;
60503;Laerm;51448;51.660;5.824;2023-11-19T13:21:29;44.22;37.43;59.32;;
60503;Laerm;51448;51.660;5.824;2023-11-19T13:24:00;42.86;35.62;58.07;;
60503;Laerm;51448;51.660;5.824;2023-11-19T13:26:27;48.15;37.91;56.74;;
60503;Laerm;51448;51.660;5.824;2023-11-19T13:28:55;50.06;41.85;62.37;;
60503;Laerm;51448;51.660;5.824;2023-11-19T13:31:23;44.17;35.82;58.99;;
60503;Laerm;51448;51.660;5.824;2023-11-19T13:33:50;44.00;36.51;62.59;;
60503;Laerm;51448;51.660;5.824;2023-11-19T13:36:18;43.07;36.53;59.20;;
60503;Laerm;51448;51.660;5.824;2023-11-19T13:38:48;42.43;35.21;58.10;;
60503;Laerm;51448;51.660;5.824;2023-11-19T13:41:15;46.66;37.64;65.66;;
60503;Laerm;51448;51.660;5.824;2023-11-19T13:43:43;43.55;36.71;58.20;;
60503;Laerm;51448;51.660;5.824;2023-11-19T13:46:11;45.71;37.41;60.47;;
60503;Laerm;51448;51.660;5.824;2023-11-19T13:48:39;45.70;38.72;52.65;;
60503;Laerm;51448;51.660;5.824;2023-11-19T13:51:07;46.04;38.18;62.44;;
60503;Laerm;51448;51.660;5.824;2023-11-19T13:53:37;52.84;38.59;76.16;;
60503;Laerm;51448;51.660;5.824;2023-11-19T13:56:08;45.23;37.27;65.87;;
60503;Laerm;51448;51.660;5.824;2023-11-19T13:58:35;47.41;38.95;60.26;;
60503;Laerm;51448;51.660;5.824;2023-11-19T14:01:05;43.78;36.87;62.87;;
60503;Laerm;51448;51.660;5.824;2023-11-19T14:03:32;44.69;36.89;53.11;;
60503;Laerm;51448;51.660;5.824;2023-11-19T14:06:02;45.77;36.86;62.91;;
60503;Laerm;51448;51.660;5.824;2023-11-19T14:08:30;48.32;40.10;71.07;;
60503;Laerm;51448;51.660;5.824;2023-11-19T14:10:58;45.59;36.57;64.75;;
60503;Laerm;51448;51.660;5.824;2023-11-19T14:13:25;40.18;36.34;50.03;;
60503;Laerm;51448;51.660;5.824;2023-11-19T14:15:53;49.18;36.75;77.36;;
60503;Laerm;51448;51.660;5.824;2023-11-19T14:18:21;45.97;35.35;62.36;;